Pembroke, New Hampshire
Current Conditions -  °F | °C
As of 10:51 AM on Thursday 27 Nov 2014 (Local Time) from KCON Reporting Station
NA  
Wind Chill: 25°   Ceiling: NA
Heat Index: 32°   Visibility: 10mi
Dew Point: 26°   Wind: 8mph
Humidity: 79%   Direction: 310°NW
Pressure: 29.94"   Gusts: NA
Location:  43.1606°N, 71.4143°W
Report Text: KCON 271551Z AUTO 31007KT 10SM 00/M03 A2994 RMK AO2 SLP145 T00001033 $
Loading
Personal Weather Stations






























Interactive Weather Map New forecast layout! Learn more

10-Day Weather Forecast

Advertisements
Track Severe Weather on mobile